MSC Carolina — 3ECV5 — position and weather

sailwx.info

Track history (hours):
 
Tides and Currents Weather Stations Pressure Air Temp Water Temp Dewpoint Dewpoint Depression Visibility Wind Speed Wind Dir Waves Ship Positions

MSC Carolina

Last reported at 2014-Nov-26 06:16 UTC. Time now 2014-Nov-26 16:22 UTC.
Position N 42°20' W 070°39'.

Length 275 m; draft 12.5 m.

Type: Ship (hazmat cat B). MMSI: 371475000.

Date/timePositionNaut miles runAvg speedWind from/ knotsBaromVisibWave heightAir tempDewpointWater temp
2014-Nov-26 06:16N 42°20' W 070°39'7 9.3
2014-Nov-26 05:33N 42°22' W 070°47'10 0.9
2014-Nov-25 17:33N 42°21' W 071°01'0 0.0
2014-Nov-25 16:15N 42°21' W 071°01'0 0.0
2014-Nov-25 13:24N 42°21' W 071°01'0 0.0
2014-Nov-25 12:33N 42°21' W 071°01'0 0.0
2014-Nov-25 04:14N 42°21' W 071°01'4 5.4
2014-Nov-25 03:29N 42°21' W 070°56'9 9.2
2014-Nov-25 02:33N 42°23' W 070°45'12 9.9
2014-Nov-25 01:22N 42°22' W 070°29'8 9.7
2014-Nov-25 00:33N 42°23' W 070°18'1010.1
2014-Nov-24 23:31N 42°29' W 070°07'12 9.8
2014-Nov-24 22:17N 42°32' W 069°51'  
2014-Nov-18 06:15N 49°55' W 003°27'1116.3
2014-Nov-18 05:33N 49°56' W 003°09'1515.6
2014-Nov-18 04:33N 49°59' W 002°46'9415.7
2014-Nov-17 22:33N 49°35' W 000°24'1717.0
2014-Nov-17 21:33N 49°30' E 000°01'6 5.8
2014-Nov-17 20:31N 49°28' E 000°09'0 0.0
2014-Nov-17 19:31N 49°28' E 000°09'0 0.0
2014-Nov-17 18:31N 49°28' E 000°09'0 0.0
2014-Nov-17 17:31N 49°28' E 000°09'0 0.0
2014-Nov-17 16:31N 49°28' E 000°09'0 0.0
2014-Nov-17 15:31N 49°28' E 000°09'0 0.0
2014-Nov-17 14:31N 49°28' E 000°09'0 0.0
2014-Nov-17 13:31N 49°28' E 000°09'0 0.0
2014-Nov-17 12:31N 49°28' E 000°09'0 0.0
2014-Nov-17 11:31N 49°28' E 000°09'0 0.0
2014-Nov-17 10:28N 49°28' E 000°09'0 0.4
2014-Nov-17 09:33N 49°28' E 000°08'1111.0
2014-Nov-17 08:33N 49°32' W 000°07'8 7.9
2014-Nov-17 07:33N 49°39' W 000°11'1110.9
2014-Nov-17 06:33N 49°50' W 000°08'3711.0
2014-Nov-17 03:15N 50°26' W 000°03'1417.9
2014-Nov-17 02:29N 50°30' E 000°17'1718.9
2014-Nov-17 01:33N 50°39' E 000°42'2019.8
2014-Nov-17 00:33N 50°50' E 001°07'2019.9
2014-Nov-16 23:34N 51°03' E 001°31'1919.2
2014-Nov-16 22:34N 51°18' E 001°49'1616.0
2014-Nov-16 21:34N 51°21' E 002°15'1918.2
2014-Nov-16 20:31N 51°22' E 002°45'1616.3
2014-Nov-16 19:33N 51°24' E 003°10'1616.5
2014-Nov-16 18:33N 51°26' E 003°36'10 9.6
2014-Nov-16 17:34N 51°21' E 003°49'9 8.7
2014-Nov-16 16:34N 51°23' E 004°03'9 9.3
2014-Nov-16 15:33N 51°21' E 004°17'0 0.2
2014-Nov-16 14:34N 51°21' E 004°18'2 2.0
2014-Nov-16 13:32N 51°20' E 004°20'0 0.0
2014-Nov-16 12:26N 51°20' E 004°20'0 0.0
2014-Nov-16 11:32N 51°20' E 004°20'0 0.0
2014-Nov-16 10:23N 51°20' E 004°20'0 0.0
2014-Nov-16 09:29N 51°20' E 004°20'0 0.0
2014-Nov-16 08:32N 51°20' E 004°20'0 0.0
2014-Nov-16 07:29N 51°20' E 004°20'0 0.0
2014-Nov-16 06:32N 51°20' E 004°20'  
Track history (hours):
 
Tides and Currents Weather Stations Pressure Air Temp Water Temp Dewpoint Dewpoint Depression Visibility Wind Speed Wind Dir Waves Ship Positions

MSC Carolina

Last reported at 2014-Nov-26 06:16 UTC. Time now 2014-Nov-26 16:22 UTC.
Position N 42°20' W 070°39'.

Length 275 m; draft 12.5 m.

Type: Ship (hazmat cat B). MMSI: 371475000.

Date/timePositionNaut miles runAvg speedWind from/ knotsBaromVisibWave heightAir tempDewpointWater temp
2014-Nov-26 06:16N 42°20' W 070°39'7 9.3
2014-Nov-26 05:33N 42°22' W 070°47'10 0.9
2014-Nov-25 17:33N 42°21' W 071°01'0 0.0
2014-Nov-25 16:15N 42°21' W 071°01'0 0.0
2014-Nov-25 13:24N 42°21' W 071°01'0 0.0
2014-Nov-25 12:33N 42°21' W 071°01'0 0.0
2014-Nov-25 04:14N 42°21' W 071°01'4 5.4
2014-Nov-25 03:29N 42°21' W 070°56'9 9.2
2014-Nov-25 02:33N 42°23' W 070°45'12 9.9
2014-Nov-25 01:22N 42°22' W 070°29'8 9.7
2014-Nov-25 00:33N 42°23' W 070°18'1010.1
2014-Nov-24 23:31N 42°29' W 070°07'12 9.8
2014-Nov-24 22:17N 42°32' W 069°51'  
2014-Nov-18 06:15N 49°55' W 003°27'1116.3
2014-Nov-18 05:33N 49°56' W 003°09'1515.6
2014-Nov-18 04:33N 49°59' W 002°46'9415.7
2014-Nov-17 22:33N 49°35' W 000°24'1717.0
2014-Nov-17 21:33N 49°30' E 000°01'6 5.8
2014-Nov-17 20:31N 49°28' E 000°09'0 0.0
2014-Nov-17 19:31N 49°28' E 000°09'0 0.0
2014-Nov-17 18:31N 49°28' E 000°09'0 0.0
2014-Nov-17 17:31N 49°28' E 000°09'0 0.0
2014-Nov-17 16:31N 49°28' E 000°09'0 0.0
2014-Nov-17 15:31N 49°28' E 000°09'0 0.0
2014-Nov-17 14:31N 49°28' E 000°09'0 0.0
2014-Nov-17 13:31N 49°28' E 000°09'0 0.0
2014-Nov-17 12:31N 49°28' E 000°09'0 0.0
2014-Nov-17 11:31N 49°28' E 000°09'0 0.0
2014-Nov-17 10:28N 49°28' E 000°09'0 0.4
2014-Nov-17 09:33N 49°28' E 000°08'1111.0
2014-Nov-17 08:33N 49°32' W 000°07'8 7.9
2014-Nov-17 07:33N 49°39' W 000°11'1110.9
2014-Nov-17 06:33N 49°50' W 000°08'3711.0
2014-Nov-17 03:15N 50°26' W 000°03'1417.9
2014-Nov-17 02:29N 50°30' E 000°17'1718.9
2014-Nov-17 01:33N 50°39' E 000°42'2019.8
2014-Nov-17 00:33N 50°50' E 001°07'2019.9
2014-Nov-16 23:34N 51°03' E 001°31'1919.2
2014-Nov-16 22:34N 51°18' E 001°49'1616.0
2014-Nov-16 21:34N 51°21' E 002°15'1918.2
2014-Nov-16 20:31N 51°22' E 002°45'1616.3
2014-Nov-16 19:33N 51°24' E 003°10'1616.5
2014-Nov-16 18:33N 51°26' E 003°36'10 9.6
2014-Nov-16 17:34N 51°21' E 003°49'9 8.7
2014-Nov-16 16:34N 51°23' E 004°03'9 9.3
2014-Nov-16 15:33N 51°21' E 004°17'0 0.2
2014-Nov-16 14:34N 51°21' E 004°18'2 2.0
2014-Nov-16 13:32N 51°20' E 004°20'0 0.0
2014-Nov-16 12:26N 51°20' E 004°20'0 0.0
2014-Nov-16 11:32N 51°20' E 004°20'0 0.0
2014-Nov-16 10:23N 51°20' E 004°20'0 0.0
2014-Nov-16 09:29N 51°20' E 004°20'0 0.0
2014-Nov-16 08:32N 51°20' E 004°20'0 0.0
2014-Nov-16 07:29N 51°20' E 004°20'0 0.0
2014-Nov-16 06:32N 51°20' E 004°20'  

Dump ship's entire track history